Time;durP1;ratioP1;P1;durP2;ratioP2;P2;SDS_P1;SDS_P2;PMS_P1;PMS_P2;Temp;Humidity;BMP_temperature;BMP_pressure;BME280_temperature;BME280_humidity;BME280_pressure;Samples;Min_cycle;Max_cycle;Signal;HPM_P1;HPM_P2
2021/10/01 00:00:00;;;;;;;12.48;11.25;;;;;;;30.92;70.21;100910.75;5026670;28;69543;-36
2021/10/01 00:02:33;;;;;;;11.93;11.13;;;;;;;30.90;70.46;100915.59;5037212;28;65488;-38
2021/10/01 00:05:05;;;;;;;11.23;9.77;;;;;;;30.79;70.79;100908.13;5039262;28;70207;-38
2021/10/01 00:07:59;;;;;;;;;;;;;;;;;;;;;
2021/10/01 00:11:02;;;;;;;13.40;12.27;;;;;;;30.73;70.94;100932.34;5028906;28;69669;-36
2021/10/01 00:14:11;;;;;;;12.88;11.82;;;;;;;30.70;71.11;100935.47;5049235;28;66267;-36
2021/10/01 00:17:02;;;;;;;16.67;12.50;;;;;;;30.69;70.95;100917.56;5040530;28;69815;-38
2021/10/01 00:20:05;;;;;;;16.80;13.48;;;;;;;30.62;71.31;100927.63;5042868;28;66801;-37
2021/10/01 00:22:53;;;;;;;14.38;13.02;;;;;;;30.69;71.19;100938.38;5044550;28;70401;-37
2021/10/01 00:25:56;;;;;;;14.60;13.25;;;;;;;30.61;71.00;100903.44;5048241;28;66190;-38
2021/10/01 00:28:35;;;;;;;12.40;11.65;;;;;;;30.83;70.89;100945.41;5041836;28;69497;-37
2021/10/01 00:31:06;;;;;;;14.07;12.68;;;;;;;30.86;70.51;100944.16;5044313;27;66600;-37
2021/10/01 00:33:38;;;;;;;13.55;12.27;;;;;;;30.92;70.51;100945.97;5046473;28;70169;-37
2021/10/01 00:36:10;;;;;;;14.48;13.18;;;;;;;30.86;70.29;100928.72;5043684;28;66654;-37
2021/10/01 00:38:41;;;;;;;13.60;12.67;;;;;;;30.96;70.30;100949.91;5027969;28;69779;-38
2021/10/01 00:41:12;;;;;;;13.95;12.80;;;;;;;30.99;70.43;100949.47;5017592;28;66101;-37
2021/10/01 00:43:44;;;;;;;13.60;12.55;;;;;;;30.98;69.96;100939.69;5050358;28;69677;-37
2021/10/01 00:46:16;;;;;;;13.02;12.02;;;;;;;31.04;69.66;100943.41;5026875;28;66676;-37
2021/10/01 00:48:48;;;;;;;15.10;13.90;;;;;;;31.03;69.85;100939.84;5045725;28;70031;-37
2021/10/01 00:51:24;;;;;;;14.60;13.35;;;;;;;31.00;70.20;100929.44;5043173;28;66088;-36
2021/10/01 00:53:57;;;;;;;15.48;14.10;;;;;;;31.09;69.80;100949.81;5041826;28;70616;-39
2021/10/01 00:56:36;;;;;;;14.30;12.95;;;;;;;31.11;69.66;100957.72;5042615;28;66767;-38
2021/10/01 00:59:13;;;;;;;14.70;13.80;;;;;;;31.07;69.70;100957.34;5044879;28;71109;-38
2021/10/01 01:01:52;;;;;;;16.75;15.32;;;;;;;31.08;70.19;100953.56;5043972;28;66188;-38
2021/10/01 01:04:30;;;;;;;16.50;15.18;;;;;;;31.02;69.78;100943.63;5039751;28;69751;-39
2021/10/01 01:07:28;;;;;;;15.13;13.93;;;;;;;31.01;69.70;100969.06;5017457;28;66845;-39
2021/10/01 01:10:36;;;;;;;14.50;13.15;;;;;;;31.01;70.04;100974.47;5045953;28;69159;-39
2021/10/01 01:13:23;;;;;;;22.33;16.25;;;;;;;31.09;70.32;100979.63;5043467;28;66148;-39
2021/10/01 01:16:11;;;;;;;16.92;15.25;;;;;;;31.00;69.98;100956.53;5041097;28;70113;-38
2021/10/01 01:19:00;;;;;;;18.92;15.30;;;;;;;31.09;70.81;100976.91;5052493;28;64713;-38
2021/10/01 01:22:00;;;;;;;18.30;16.40;;;;;;;31.06;71.83;100974.63;5040139;28;69478;-39
2021/10/01 01:25:05;;;;;;;19.45;17.52;;;;;;;30.99;72.26;100984.69;5036752;28;66375;-40
2021/10/01 01:28:38;;;;;;;20.13;17.60;;;;;;;30.85;73.10;100980.41;5041380;28;69318;-37
2021/10/01 01:31:27;;;;;;;20.45;17.00;;;;;;;30.96;72.64;100979.72;5031448;28;66656;-40
2021/10/01 01:34:06;;;;;;;21.15;19.20;;;;;;;30.91;71.39;100976.81;5051073;28;70359;-40
2021/10/01 01:36:50;;;;;;;23.45;21.10;;;;;;;30.83;70.99;100964.38;5045518;28;66169;-40
2021/10/01 01:39:27;;;;;;;24.75;22.60;;;;;;;30.80;70.73;100974.81;5035269;28;69253;-40
2021/10/01 01:42:07;;;;;;;;;;;;;;;30.51;71.84;100977.03;5035440;28;65780;-39
2021/10/01 01:45:01;;;;;;;26.58;24.15;;;;;;;30.73;70.77;100975.66;5024157;28;70037;-40
2021/10/01 01:47:39;;;;;;;25.98;23.48;;;;;;;30.73;70.53;100972.13;5040713;28;65999;-39
2021/10/01 01:50:13;;;;;;;34.45;25.90;;;;;;;30.76;69.88;100987.09;5023668;28;70013;-40
2021/10/01 01:52:51;;;;;;;27.35;24.63;;;;;;;30.74;69.73;100984.59;5041256;28;65555;-40
2021/10/01 01:55:37;;;;;;;29.10;26.02;;;;;;;30.68;69.89;100983.59;5028030;28;70328;-40
2021/10/01 01:58:29;;;;;;;30.83;25.23;;;;;;;30.71;70.16;100991.28;5041629;27;65836;-40
2021/10/01 02:01:32;;;;;;;26.02;23.17;;;;;;;30.73;70.14;100982.97;5042555;28;69824;-40
2021/10/01 02:04:18;;;;;;;26.38;23.63;;;;;;;30.73;70.01;100983.78;5026782;28;66038;-39
2021/10/01 02:07:01;;;;;;;25.70;23.42;;;;;;;30.81;69.42;100987.28;5043319;28;70024;-40
2021/10/01 02:09:49;;;;;;;24.30;22.40;;;;;;;30.81;70.57;100990.81;5034579;28;66186;-38
2021/10/01 02:12:48;;;;;;;25.38;22.95;;;;;;;30.84;69.76;100989.56;5047976;28;69794;-39
2021/10/01 02:15:33;;;;;;;25.85;23.30;;;;;;;30.86;70.25;100995.59;5048159;28;65311;-39
2021/10/01 02:18:14;;;;;;;24.45;20.55;;;;;;;30.90;69.33;100994.97;5039567;28;70079;-39
2021/10/01 02:20:49;;;;;;;18.83;17.17;;;;;;;30.93;69.00;100988.28;5043109;28;66303;-39
2021/10/01 02:23:31;;;;;;;18.98;17.15;;;;;;;30.84;68.74;100967.91;5022987;28;70113;-39
2021/10/01 02:26:34;;;;;;;18.95;17.15;;;;;;;30.58;69.56;100936.38;5043896;28;66616;-39
2021/10/01 02:29:48;;;;;;;16.42;15.10;;;;;;;30.82;69.16;100986.25;5030201;28;69998;-39
2021/10/01 02:33:04;;;;;;;16.05;14.45;;;;;;;30.81;68.51;100980.00;5045386;28;66274;-39
2021/10/01 02:35:39;;;;;;;15.35;14.25;;;;;;;30.97;68.32;100984.06;5025871;28;70107;-39
2021/10/01 02:38:16;;;;;;;14.75;13.75;;;;;;;31.01;68.40;100990.72;5042485;28;65085;-39
2021/10/01 02:40:51;;;;;;;15.95;14.70;;;;;;;31.02;68.65;100981.53;5023219;28;70055;-39
2021/10/01 02:43:32;;;;;;;14.82;13.68;;;;;;;31.05;68.31;100986.53;5042017;28;66521;-39
2021/10/01 02:46:17;;;;;;;15.33;14.20;;;;;;;31.07;68.01;100976.31;5022118;28;70534;-39
2021/10/01 02:49:01;;;;;;;15.70;14.60;;;;;;;31.00;68.69;100959.25;5043147;28;65270;-39
2021/10/01 02:51:40;;;;;;;14.52;13.65;;;;;;;31.04;68.39;100962.38;5030456;28;70308;-39
2021/10/01 02:54:17;;;;;;;16.08;14.88;;;;;;;31.10;69.11;100967.72;5024369;28;66885;-39
2021/10/01 02:57:07;;;;;;;15.55;14.45;;;;;;;31.07;68.81;100979.00;5041893;28;71165;-39
2021/10/01 02:59:45;;;;;;;15.77;14.68;;;;;;;30.80;68.88;100920.66;5028554;28;66149;-40
2021/10/01 03:02:24;;;;;;;15.20;13.90;;;;;;;30.87;69.33;100930.41;5013570;28;69312;-40
2021/10/01 03:05:00;;;;;;;15.90;14.50;;;;;;;31.19;69.11;100968.28;5034675;28;66305;-40
2021/10/01 03:07:51;;;;;;;15.48;13.27;;;;;;;31.24;69.58;100951.38;5041477;28;70468;-40
2021/10/01 03:10:26;;;;;;;14.32;13.07;;;;;;;31.27;68.54;100948.22;5044335;28;65387;-40
2021/10/01 03:13:02;;;;;;;12.32;11.60;;;;;;;31.29;68.26;100948.84;5030588;28;69020;-40
2021/10/01 03:15:35;;;;;;;12.70;11.95;;;;;;;31.32;68.44;100954.63;5050120;28;65519;-40
2021/10/01 03:18:08;;;;;;;13.45;12.57;;;;;;;31.37;68.14;100952.13;5043680;28;70104;-40
2021/10/01 03:20:41;;;;;;;13.38;12.32;;;;;;;31.30;67.95;100945.06;5043109;28;66777;-40
2021/10/01 03:23:19;;;;;;;15.40;14.20;;;;;;;31.41;68.41;100944.38;5025798;28;70054;-39
2021/10/01 03:25:53;;;;;;;14.40;13.25;;;;;;;31.44;68.36;100945.81;5024978;28;66442;-40
2021/10/01 03:28:29;;;;;;;15.27;13.75;;;;;;;31.41;67.88;100930.81;5041505;28;70313;-41
2021/10/01 03:31:02;;;;;;;15.35;14.00;;;;;;;31.43;67.45;100934.13;5044774;28;66923;-40
2021/10/01 03:33:37;;;;;;;16.25;14.63;;;;;;;31.43;67.49;100927.91;5030446;28;71548;-39
2021/10/01 03:36:09;;;;;;;15.18;14.18;;;;;;;31.34;67.04;100900.19;5033333;28;66646;-40
2021/10/01 03:38:47;;;;;;;15.10;13.80;;;;;;;31.52;67.46;100921.13;5040036;28;69966;-40
2021/10/01 03:41:18;;;;;;;13.18;12.25;;;;;;;31.54;65.81;100919.03;5042665;28;66125;-39
2021/10/01 03:43:50;;;;;;;13.32;12.23;;;;;;;31.54;64.93;100917.13;5040102;28;70660;-40
2021/10/01 03:46:21;;;;;;;13.02;12.02;;;;;;;31.63;64.21;100917.66;5044557;28;65749;-39
2021/10/01 03:48:52;;;;;;;12.07;11.43;;;;;;;31.59;64.83;100911.88;5045286;28;69706;-39
2021/10/01 03:51:23;;;;;;;12.68;11.60;;;;;;;31.57;65.54;100913.97;5031331;28;66566;-39
2021/10/01 03:53:55;;;;;;;12.77;11.82;;;;;;;31.54;65.58;100909.00;5042954;28;70196;-40
2021/10/01 03:56:27;;;;;;;12.82;11.85;;;;;;;31.52;65.85;100907.56;5039028;28;66623;-40
2021/10/01 03:58:58;;;;;;;13.38;12.20;;;;;;;31.52;65.61;100902.97;5048511;28;69889;-40
2021/10/01 04:01:29;;;;;;;14.02;12.80;;;;;;;31.56;66.08;100901.44;5047010;28;65320;-40
2021/10/01 04:04:00;;;;;;;14.68;13.57;;;;;;;31.60;64.24;100886.41;5040598;28;70352;-41
2021/10/01 04:06:32;;;;;;;13.90;12.80;;;;;;;31.61;63.26;100860.94;5041772;28;65230;-39
2021/10/01 04:09:03;;;;;;;15.87;14.67;;;;;;;31.84;62.80;100883.84;5048910;28;69931;-40
2021/10/01 04:11:37;;;;;;;14.07;13.17;;;;;;;31.91;63.16;100887.34;5048441;28;65276;-40
2021/10/01 04:14:11;;;;;;;15.88;12.32;;;;;;;31.87;63.85;100883.38;5049137;28;70196;-41
2021/10/01 04:16:43;;;;;;;12.88;11.65;;;;;;;31.82;64.26;100877.84;5059949;28;66159;-40
2021/10/01 04:19:13;;;;;;;12.27;11.18;;;;;;;31.82;64.08;100873.22;5043817;28;70034;-40
2021/10/01 04:22:05;;;;;;;10.75;9.95;;;;;;;31.82;63.34;100875.13;5046187;28;66161;-41
2021/10/01 04:24:56;;;;;;;11.25;8.98;;;;;;;31.84;62.01;100864.84;5052988;28;70187;-40
2021/10/01 04:27:27;;;;;;;9.80;9.20;;;;;;;31.88;62.16;100860.63;5047473;28;65515;-40
2021/10/01 04:30:00;;;;;;;9.03;8.33;;;;;;;31.87;63.03;100864.38;5046240;28;69581;-39
2021/10/01 04:32:32;;;;;;;9.40;8.63;;;;;;;31.84;63.52;100851.28;5043427;28;65842;-40
2021/10/01 04:35:06;;;;;;;9.07;8.43;;;;;;;31.76;64.25;100841.59;5035886;28;70214;-40
2021/10/01 04:37:38;;;;;;;8.98;8.48;;;;;;;31.81;64.59;100849.03;5043557;28;66898;-40
2021/10/01 04:40:09;;;;;;;8.80;8.23;;;;;;;31.83;65.14;100847.75;5041569;28;70270;-39
2021/10/01 04:42:40;;;;;;;8.67;7.97;;;;;;;31.80;65.30;100840.06;5046251;28;65917;-40
2021/10/01 04:45:15;;;;;;;8.77;7.85;;;;;;;31.80;65.23;100842.78;5045421;28;70374;-39
2021/10/01 04:47:46;;;;;;;8.65;7.82;;;;;;;31.80;65.41;100848.22;5034204;28;65696;-39
2021/10/01 04:50:18;;;;;;;8.15;7.68;;;;;;;31.81;65.16;100833.56;5041345;28;69934;-39
2021/10/01 04:52:49;;;;;;;7.90;7.40;;;;;;;31.77;65.50;100810.69;5048895;28;66603;-40
2021/10/01 04:55:26;;;;;;;8.30;7.60;;;;;;;31.82;65.34;100804.59;5024663;28;69209;-40
2021/10/01 04:57:57;;;;;;;8.07;7.68;;;;;;;31.78;65.27;100800.66;5046975;28;66446;-39
2021/10/01 05:00:46;;;;;;;7.97;7.38;;;;;;;31.82;65.79;100807.31;5043324;28;69379;-40
2021/10/01 05:03:36;;;;;;;7.00;6.60;;;;;;;31.82;65.49;100801.88;5025314;28;65092;-39
2021/10/01 05:06:41;;;;;;;7.60;7.18;;;;;;;31.82;66.15;100793.75;5040088;28;69934;-38
2021/10/01 05:09:24;;;;;;;7.63;7.13;;;;;;;31.85;66.28;100785.16;5041204;28;65343;-38
2021/10/01 05:12:13;;;;;;;7.60;6.88;;;;;;;31.85;66.16;100787.84;5042050;28;70141;-38
2021/10/01 05:15:23;;;;;;;6.75;6.32;;;;;;;31.86;65.94;100781.38;5002847;28;66336;-38
2021/10/01 05:18:24;;;;;;;7.53;7.03;;;;;;;31.81;66.31;100762.22;4941563;28;70603;-38
2021/10/01 05:21:13;;;;;;;6.97;6.57;;;;;;;31.92;66.14;100779.66;5029810;28;65598;-38
2021/10/01 05:24:00;;;;;;;6.57;6.18;;;;;;;31.93;66.23;100779.44;5045441;28;69899;-39
2021/10/01 05:26:31;;;;;;;6.67;6.27;;;;;;;31.95;66.36;100762.91;5044862;28;66696;-38
2021/10/01 05:29:02;;;;;;;5.80;5.50;;;;;;;31.97;66.04;100761.63;5043108;27;70852;-38
2021/10/01 05:31:33;;;;;;;6.07;5.77;;;;;;;31.96;66.20;100754.56;5043408;28;65909;-38
2021/10/01 05:34:05;;;;;;;6.60;6.10;;;;;;;32.08;65.97;100756.47;5041631;28;70409;-39
2021/10/01 05:36:36;;;;;;;6.97;6.20;;;;;;;32.09;66.39;100731.81;5044368;28;66468;-38
2021/10/01 05:39:07;;;;;;;6.10;5.80;;;;;;;32.25;66.07;100738.47;5047427;28;70203;-39
2021/10/01 05:41:39;;;;;;;6.22;5.82;;;;;;;32.34;65.75;100726.19;5047650;28;66299;-39
2021/10/01 05:44:11;;;;;;;7.15;6.15;;;;;;;32.38;65.81;100715.72;5049331;28;70175;-38
2021/10/01 05:46:45;;;;;;;9.25;5.97;;;;;;;32.44;66.12;100707.44;5044593;28;65358;-39
2021/10/01 05:49:40;;;;;;;6.88;5.40;;;;;;;32.52;66.12;100702.78;5042610;28;70156;-38
2021/10/01 05:55:21;;;;;;;6.32;5.90;;;;;;;32.51;66.01;100684.81;5035171;28;70323;-38
2021/10/01 05:58:10;;;;;;;6.95;5.85;;;;;;;32.64;65.55;100687.28;5045236;28;66704;-39
2021/10/01 06:00:52;;;;;;;6.50;6.10;;;;;;;32.57;65.90;100662.13;5053993;27;70104;-38
2021/10/01 06:03:24;;;;;;;6.18;5.80;;;;;;;32.55;65.91;100653.41;5047231;28;66351;-39
2021/10/01 06:05:56;;;;;;;6.53;6.10;;;;;;;32.72;65.74;100668.75;5034907;28;70331;-39
2021/10/01 06:08:28;;;;;;;6.50;6.00;;;;;;;32.71;65.57;100658.13;5040462;28;65548;-39
2021/10/01 06:10:59;;;;;;;5.97;5.68;;;;;;;32.77;65.52;100662.59;5033708;28;69765;-38
2021/10/01 06:13:30;;;;;;;6.40;6.00;;;;;;;32.73;65.70;100653.25;5039805;28;66618;-39
2021/10/01 06:16:01;;;;;;;6.43;5.93;;;;;;;32.82;65.55;100659.16;5028277;28;68876;-40
2021/10/01 06:18:32;;;;;;;5.97;5.57;;;;;;;32.81;65.29;100652.06;5043005;28;65908;-39
2021/10/01 06:21:05;;;;;;;5.68;5.38;;;;;;;32.81;65.06;100644.75;5036086;28;70250;-39
2021/10/01 06:23:36;;;;;;;5.82;5.43;;;;;;;32.89;65.08;100632.69;5046364;28;65889;-39
2021/10/01 06:26:07;;;;;;;4.82;4.47;;;;;;;32.90;65.21;100629.75;5046862;28;69393;-38
2021/10/01 06:28:39;;;;;;;5.50;4.97;;;;;;;32.92;64.68;100627.59;5040483;28;66591;-37
2021/10/01 06:31:10;;;;;;;7.80;4.93;;;;;;;32.93;64.90;100618.41;5040763;28;70624;-40
2021/10/01 06:33:42;;;;;;;5.03;4.63;;;;;;;32.96;64.70;100616.25;5041998;28;64867;-40
2021/10/01 06:36:17;;;;;;;4.85;4.45;;;;;;;32.99;64.53;100613.03;5005410;28;70080;-39
2021/10/01 06:38:48;;;;;;;5.32;4.80;;;;;;;32.97;64.53;100601.59;5045225;28;66575;-38
2021/10/01 06:41:20;;;;;;;4.90;4.68;;;;;;;33.01;64.32;100597.34;5041126;28;70159;-39
2021/10/01 06:44:01;;;;;;;5.10;4.50;;;;;;;32.98;64.36;100587.75;5014259;28;65881;-39
2021/10/01 06:49:45;;;;;;;9.25;4.75;;;;;;;32.98;64.28;100565.22;5045349;28;65436;-38
2021/10/01 07:35:38;;;;;;;4.55;4.25;;;;;;;33.04;64.18;100581.41;5041378;28;66251;-39
2021/10/01 08:20:45;;;;;;;4.82;4.47;;;;;;;32.86;64.66;100560.66;5035156;28;65428;-38
2021/10/01 08:23:17;;;;;;;5.72;4.50;;;;;;;32.78;64.60;100539.28;5045368;28;70687;-39
2021/10/01 08:25:49;;;;;;;4.53;4.10;;;;;;;32.84;64.50;100549.19;5042432;28;66238;-39
2021/10/01 08:28:21;;;;;;;5.85;4.72;;;;;;;32.86;64.41;100552.50;5026360;28;68851;-39
2021/10/01 08:31:16;;;;;;;5.75;5.07;;;;;;;32.81;64.12;100565.97;5051351;28;66190;-40
2021/10/01 08:33:48;;;;;;;5.65;4.82;;;;;;;32.85;64.07;100567.16;5045459;28;69978;-40
2021/10/01 08:36:20;;;;;;;6.95;4.25;;;;;;;32.83;64.09;100558.41;5031422;28;65732;-39
2021/10/01 08:39:05;;;;;;;5.63;4.47;;;;;;;32.77;64.03;100536.84;5039326;28;70468;-40
2021/10/01 08:41:39;;;;;;;4.90;4.43;;;;;;;32.75;64.19;100523.47;5050630;28;66762;-40
2021/10/01 08:44:11;;;;;;;5.35;4.30;;;;;;;32.70;64.24;100509.78;5047063;28;70557;-40
2021/10/01 08:46:46;;;;;;;4.82;4.32;;;;;;;32.72;64.41;100508.50;5036866;28;66167;-39
2021/10/01 08:49:18;;;;;;;5.97;5.47;;;;;;;32.76;64.39;100513.44;5014944;28;70518;-40
2021/10/01 08:51:51;;;;;;;5.65;5.25;;;;;;;32.75;64.53;100517.22;5032605;28;66639;-40
2021/10/01 08:54:25;;;;;;;5.13;4.63;;;;;;;32.74;64.46;100527.28;5043758;28;70438;-41
2021/10/01 08:56:56;;;;;;;8.40;5.63;;;;;;;32.64;64.59;100521.63;5038758;28;65758;-38
2021/10/01 08:59:29;;;;;;;8.85;8.02;;;;;;;32.65;65.00;100534.97;5028022;28;69939;-39
2021/10/01 09:02:01;;;;;;;10.48;9.63;;;;;;;32.60;65.76;100534.88;5028594;28;65252;-39
2021/10/01 09:04:33;;;;;;;11.02;9.77;;;;;;;32.56;66.60;100547.25;5021482;28;69082;-39
2021/10/01 09:07:04;;;;;;;;;;;;;;;32.18;67.72;100564.03;5037154;28;65874;-38
2021/10/01 09:09:37;;;;;;;11.55;10.48;;;;;;;32.40;67.06;100575.13;5019795;28;70173;-37
2021/10/01 09:12:09;;;;;;;12.13;11.05;;;;;;;32.38;67.20;100585.41;5032610;28;66197;-39
2021/10/01 09:14:47;;;;;;;;;;;;;;;32.04;67.99;100577.88;5029782;28;70136;-39
2021/10/01 09:17:21;;;;;;;11.80;10.35;;;;;;;32.31;66.75;100582.81;5041230;28;66721;-39
2021/10/01 09:19:54;;;;;;;10.75;9.77;;;;;;;32.23;67.34;100580.44;5046736;28;69467;-45
2021/10/01 09:22:30;;;;;;;10.70;9.38;;;;;;;32.26;66.96;100588.97;5028050;28;66245;-38
2021/10/01 09:25:15;;;;;;;10.70;9.80;;;;;;;32.17;67.11;100581.41;5045906;28;69760;-38
2021/10/01 09:27:52;;;;;;;11.07;9.80;;;;;;;32.19;67.43;100592.84;5033919;28;66321;-40
2021/10/01 09:30:23;;;;;;;11.98;11.00;;;;;;;32.12;66.88;100589.41;5032673;28;70323;-38
2021/10/01 09:33:10;;;;;;;15.23;11.82;;;;;;;32.08;67.53;100596.38;5041810;28;66066;-40
2021/10/01 09:35:43;;;;;;;13.25;12.15;;;;;;;32.13;67.09;100585.66;5039603;28;69533;-39
2021/10/01 09:38:17;;;;;;;15.55;12.23;;;;;;;32.11;67.62;100595.91;5027521;28;65431;-38
2021/10/01 09:41:12;;;;;;;15.23;13.90;;;;;;;31.99;67.93;100596.75;5042204;28;70322;-41
2021/10/01 09:43:44;;;;;;;14.98;13.43;;;;;;;32.05;67.66;100589.53;5039764;28;66772;-40
2021/10/01 09:46:16;;;;;;;15.45;14.23;;;;;;;31.99;68.02;100591.31;5046459;28;70784;-38
2021/10/01 09:48:47;;;;;;;16.23;13.00;;;;;;;32.06;68.11;100607.47;5038955;28;66494;-37
2021/10/01 09:51:19;;;;;;;14.40;12.90;;;;;;;32.10;69.21;100618.69;5039432;28;70029;-36
2021/10/01 09:53:53;;;;;;;22.30;11.77;;;;;;;32.03;69.14;100618.78;5043087;28;64826;-36
2021/10/01 09:56:30;;;;;;;13.35;12.10;;;;;;;32.01;68.84;100629.88;5027454;28;69957;-37
2021/10/01 09:59:08;;;;;;;12.93;11.73;;;;;;;31.97;69.58;100636.81;5023412;28;66033;-42
2021/10/01 10:01:59;;;;;;;11.55;10.65;;;;;;;31.92;69.86;100639.41;5040870;28;70550;-40
2021/10/01 10:04:38;;;;;;;40.58;32.88;;;;;;;31.91;69.59;100632.34;5040908;28;66777;-40
2021/10/01 10:07:14;;;;;;;41.03;28.83;;;;;;;31.76;69.90;100646.31;5042449;28;69852;-41
2021/10/01 10:09:57;;;;;;;45.83;32.72;;;;;;;31.67;70.83;100644.97;5045343;28;65363;-40
2021/10/01 10:12:34;;;;;;;31.00;27.40;;;;;;;31.72;71.49;100652.44;5039106;28;70049;-39
2021/10/01 10:15:14;;;;;;;35.80;27.05;;;;;;;31.75;71.24;100660.91;5043016;28;66767;-36
2021/10/01 10:17:48;;;;;;;29.85;25.13;;;;;;;31.77;71.21;100658.00;5038640;28;70391;-35
2021/10/01 10:20:20;;;;;;;27.02;24.23;;;;;;;31.48;71.00;100609.00;5042799;28;66721;-36
2021/10/01 10:22:51;;;;;;;28.65;23.77;;;;;;;31.78;71.54;100649.59;5043602;28;70275;-35
2021/10/01 10:25:22;;;;;;;26.35;22.92;;;;;;;31.77;71.98;100653.38;5041303;28;65753;-36
2021/10/01 10:27:53;;;;;;;29.63;22.98;;;;;;;31.85;71.72;100660.38;5043303;28;69850;-39
2021/10/01 10:30:24;;;;;;;;;;;;;;;31.58;72.38;100668.06;5046879;28;66137;-36
2021/10/01 10:32:54;;;;;;;28.63;22.08;;;;;;;31.81;72.01;100667.31;5045459;28;70249;-36
2021/10/01 10:35:40;;;;;;;24.27;21.25;;;;;;;31.79;71.33;100672.16;5042747;28;66031;-36
2021/10/01 10:38:32;;;;;;;27.10;24.27;;;;;;;31.77;71.74;100674.25;5039571;28;69599;-36
2021/10/01 10:41:26;;;;;;;25.48;22.95;;;;;;;31.75;71.30;100682.63;5042261;28;66564;-36
2021/10/01 10:43:57;;;;;;;28.60;23.70;;;;;;;31.81;71.21;100687.13;5045425;28;70941;-36
2021/10/01 10:46:37;;;;;;;26.47;23.63;;;;;;;31.79;71.62;100693.84;5032987;28;66463;-37
2021/10/01 10:49:21;;;;;;;27.58;23.17;;;;;;;31.79;71.53;100707.41;5043196;28;69696;-36
2021/10/01 10:52:15;;;;;;;27.70;24.45;;;;;;;31.74;71.92;100699.97;5038791;28;66398;-36
2021/10/01 10:55:09;;;;;;;29.48;23.00;;;;;;;31.74;71.96;100685.56;5040592;28;69425;-36
2021/10/01 10:57:46;;;;;;;27.63;23.65;;;;;;;31.77;71.80;100695.97;5048017;28;66292;-36
2021/10/01 11:00:31;;;;;;;26.55;22.33;;;;;;;31.75;72.67;100698.06;5040107;28;69441;-35
2021/10/01 11:03:22;;;;;;;26.05;21.17;;;;;;;31.42;72.44;100650.56;5040654;28;65543;-35
2021/10/01 11:06:09;;;;;;;25.20;21.95;;;;;;;31.75;72.20;100708.91;5048725;28;69404;-37
2021/10/01 11:08:46;;;;;;;23.17;20.88;;;;;;;31.80;72.08;100717.19;5012191;28;64998;-36
2021/10/01 11:11:33;;;;;;;22.67;20.27;;;;;;;31.75;72.25;100741.47;5034147;28;70302;-36
2021/10/01 11:14:27;;;;;;;20.80;18.67;;;;;;;31.73;72.03;100743.56;5040572;28;66595;-36
2021/10/01 11:16:58;;;;;;;20.90;18.35;;;;;;;31.76;72.37;100759.38;5037462;28;70202;-36
2021/10/01 11:19:44;;;;;;;20.13;18.27;;;;;;;31.40;72.26;100712.31;5036919;28;66778;-38
2021/10/01 11:22:37;;;;;;;19.48;17.60;;;;;;;31.70;71.88;100776.56;5041018;28;69046;-37
2021/10/01 11:25:14;;;;;;;17.27;15.52;;;;;;;31.75;72.10;100774.00;5036931;28;65529;-38
2021/10/01 11:28:01;;;;;;;16.00;14.50;;;;;;;31.73;71.78;100776.97;5037733;28;69681;-38
2021/10/01 11:30:37;;;;;;;14.50;13.40;;;;;;;31.72;71.71;100771.75;5038827;28;65775;-38
2021/10/01 11:33:13;;;;;;;13.70;12.50;;;;;;;31.70;71.71;100779.28;5039816;28;70401;-39
2021/10/01 11:35:55;;;;;;;13.25;12.07;;;;;;;31.69;71.77;100777.63;5040598;28;66303;-38
2021/10/01 11:38:33;;;;;;;;;;;;;;;31.45;72.44;100785.63;5042081;28;70110;-38
2021/10/01 11:41:14;;;;;;;11.20;10.27;;;;;;;31.13;71.98;100701.75;5039526;28;66025;-38
2021/10/01 11:43:52;;;;;;;13.07;9.57;;;;;;;31.63;71.52;100781.28;5039950;28;69660;-38
2021/10/01 11:46:55;;;;;;;20.27;10.63;;;;;;;31.58;71.69;100803.63;5041532;28;67128;-38
2021/10/01 11:49:29;;;;;;;11.00;10.00;;;;;;;31.67;71.26;100804.16;5012092;28;69749;-39
2021/10/01 11:52:12;;;;;;;9.50;8.57;;;;;;;31.64;71.35;100826.31;5040386;28;66623;-37
2021/10/01 11:54:52;;;;;;;9.15;8.45;;;;;;;31.66;70.98;100837.75;5029945;28;69473;-38
2021/10/01 11:57:24;;;;;;;8.38;7.68;;;;;;;31.66;71.45;100845.88;5042942;28;66736;-38
2021/10/01 12:00:00;;;;;;;8.80;8.30;;;;;;;31.51;71.37;100833.53;5028041;28;70322;-38
2021/10/01 12:02:48;;;;;;;9.27;8.00;;;;;;;31.53;71.15;100836.84;5039017;28;68344;-38
2021/10/01 12:05:32;;;;;;;8.52;7.55;;;;;;;31.62;70.94;100869.91;5039519;28;69284;-38
2021/10/01 12:08:07;;;;;;;7.97;6.20;;;;;;;31.60;70.85;100870.13;5047183;28;67921;-38
2021/10/01 12:10:41;;;;;;;7.40;6.90;;;;;;;31.60;70.90;100875.56;5038282;28;70090;-38
2021/10/01 12:13:33;;;;;;;7.95;7.20;;;;;;;31.60;71.08;100886.41;5047974;28;66255;-39
2021/10/01 12:16:10;;;;;;;7.72;7.03;;;;;;;31.36;71.53;100852.03;5045922;28;69965;-39
2021/10/01 12:18:57;;;;;;;9.32;6.90;;;;;;;31.58;71.22;100893.94;5046226;28;66191;-39
2021/10/01 12:21:29;;;;;;;8.60;6.43;;;;;;;31.57;72.07;100908.56;5045523;28;69255;-39
2021/10/01 12:24:09;;;;;;;7.30;6.57;;;;;;;31.24;72.58;100860.06;5040042;28;66049;-39
2021/10/01 12:27:14;;;;;;;10.52;6.78;;;;;;;31.54;72.49;100909.00;5050265;28;69495;-38
2021/10/01 12:29:50;;;;;;;6.13;5.70;;;;;;;31.65;72.34;100922.84;5047106;28;66269;-39
2021/10/01 12:32:22;;;;;;;6.53;5.95;;;;;;;31.58;72.42;100921.03;5047074;28;70050;-39
2021/10/01 12:34:57;;;;;;;8.50;5.53;;;;;;;31.35;72.42;100893.72;5046547;28;65382;-40
2021/10/01 12:37:33;;;;;;;6.30;5.80;;;;;;;31.64;72.10;100940.19;5045240;28;70357;-39
2021/10/01 12:40:07;;;;;;;5.55;5.15;;;;;;;31.61;72.53;100945.00;5043468;28;66705;-38
2021/10/01 12:42:40;;;;;;;13.65;4.93;;;;;;;31.62;72.24;100953.97;5045485;28;70234;-39
2021/10/01 12:45:17;;;;;;;6.25;4.97;;;;;;;31.61;72.59;100958.56;5043866;28;66146;-39
2021/10/01 12:47:51;;;;;;;7.55;4.95;;;;;;;31.59;72.67;100970.69;5049231;28;69994;-39
2021/10/01 12:50:34;;;;;;;7.88;4.13;;;;;;;31.54;71.88;100975.97;5047035;28;66543;-39
2021/10/01 12:53:08;;;;;;;3.70;3.40;;;;;;;31.52;71.27;100980.78;5042406;28;70265;-37
2021/10/01 12:55:44;;;;;;;8.13;3.38;;;;;;;31.52;71.79;100986.19;5042610;28;66159;-37
2021/10/01 12:58:20;;;;;;;5.78;3.47;;;;;;;31.51;71.83;100981.81;5043706;28;69057;-37
2021/10/01 13:00:54;;;;;;;4.10;3.42;;;;;;;31.49;72.47;100979.34;5044191;28;65416;-37
2021/10/01 13:03:26;;;;;;;13.30;3.63;;;;;;;31.50;72.37;100970.13;5044650;28;71267;-36
2021/10/01 13:06:01;;;;;;;7.38;2.88;;;;;;;31.53;72.55;100966.16;5041722;28;66231;-37
2021/10/01 13:08:35;;;;;;;5.15;3.08;;;;;;;31.56;72.20;100966.53;5026741;28;70516;-38
2021/10/01 13:11:07;;;;;;;2.70;2.50;;;;;;;31.53;72.03;100966.97;5044545;28;65657;-38
2021/10/01 13:13:40;;;;;;;2.85;2.65;;;;;;;31.47;72.06;100965.16;5053591;27;71256;-38
2021/10/01 13:16:23;;;;;;;3.80;2.63;;;;;;;31.53;72.49;100977.81;5041408;28;66150;-37
2021/10/01 13:19:12;;;;;;;20.75;2.30;;;;;;;31.53;72.36;100972.41;5046345;28;69323;-36
2021/10/01 13:21:55;;;;;;;2.03;1.90;;;;;;;31.52;72.65;100989.72;5040564;28;66197;-36
2021/10/01 13:24:27;;;;;;;14.80;2.30;;;;;;;31.49;72.24;100987.47;5043377;28;70392;-36
2021/10/01 13:26:59;;;;;;;1.90;1.80;;;;;;;31.57;72.13;100989.91;5042365;28;65611;-33
2021/10/01 13:29:30;;;;;;;7.30;1.92;;;;;;;31.50;72.73;100989.13;5042665;28;70728;-35
2021/10/01 13:32:02;;;;;;;6.38;2.20;;;;;;;31.58;72.60;101007.81;5041556;28;66018;-35
2021/10/01 13:34:36;;;;;;;10.88;1.98;;;;;;;31.63;71.91;100998.19;5040887;28;69638;-35
2021/10/01 13:37:08;;;;;;;2.55;2.05;;;;;;;31.64;72.71;100994.41;5034853;28;66312;-35
2021/10/01 13:39:40;;;;;;;2.40;1.52;;;;;;;31.64;72.60;100994.41;5042618;28;70520;-35
2021/10/01 13:42:13;;;;;;;3.50;1.90;;;;;;;31.58;72.60;100980.69;5044243;28;65342;-35
2021/10/01 13:44:45;;;;;;;4.57;2.03;;;;;;;31.69;72.81;101002.72;5043223;28;70659;-34